sensor_id;sensor_type;location;lat;lon;timestamp;pressure;altitude;pressure_sealevel;temperature;humidity
13011;BME280;6786;57.632;11.962;2024-02-15T00:00:31;100920.34;;;19.21;37.69
13011;BME280;6786;57.632;11.962;2024-02-15T00:03:01;100919.41;;;19.22;37.57
13011;BME280;6786;57.632;11.962;2024-02-15T00:05:29;100924.03;;;19.20;37.67
13011;BME280;6786;57.632;11.962;2024-02-15T00:07:58;100931.06;;;19.21;37.58
13011;BME280;6786;57.632;11.962;2024-02-15T00:10:26;100936.44;;;19.21;37.54
13011;BME280;6786;57.632;11.962;2024-02-15T00:12:54;100926.72;;;19.20;37.71
13011;BME280;6786;57.632;11.962;2024-02-15T00:15:23;100931.06;;;19.21;37.55
13011;BME280;6786;57.632;11.962;2024-02-15T00:17:51;100931.06;;;19.21;37.51
13011;BME280;6786;57.632;11.962;2024-02-15T00:20:21;100932.81;;;19.22;37.64
13011;BME280;6786;57.632;11.962;2024-02-15T00:22:49;100931.06;;;19.21;37.58
13011;BME280;6786;57.632;11.962;2024-02-15T00:25:19;100928.53;;;19.19;37.57
13011;BME280;6786;57.632;11.962;2024-02-15T00:27:47;100920.63;;;19.18;37.50
13011;BME280;6786;57.632;11.962;2024-02-15T00:30:16;100925.72;;;19.21;37.50
13011;BME280;6786;57.632;11.962;2024-02-15T00:32:44;100925.72;;;19.21;37.56
13011;BME280;6786;57.632;11.962;2024-02-15T00:35:14;100931.06;;;19.21;37.63
13011;BME280;6786;57.632;11.962;2024-02-15T00:37:44;100936.44;;;19.21;37.58
13011;BME280;6786;57.632;11.962;2024-02-15T00:40:13;100926.84;;;19.18;37.52
13011;BME280;6786;57.632;11.962;2024-02-15T00:42:41;100934.75;;;19.20;37.60
13011;BME280;6786;57.632;11.962;2024-02-15T00:45:09;100931.06;;;19.21;37.60
13011;BME280;6786;57.632;11.962;2024-02-15T00:47:37;100929.38;;;19.20;37.53
13011;BME280;6786;57.632;11.962;2024-02-15T00:50:09;100936.44;;;19.21;37.59
13011;BME280;6786;57.632;11.962;2024-02-15T00:52:38;100931.06;;;19.21;37.54
13011;BME280;6786;57.632;11.962;2024-02-15T00:55:08;100931.06;;;19.21;37.60
13011;BME280;6786;57.632;11.962;2024-02-15T00:57:36;100938.16;;;19.22;37.60
13011;BME280;6786;57.632;11.962;2024-02-15T01:00:07;100936.44;;;19.21;37.57
13011;BME280;6786;57.632;11.962;2024-02-15T01:02:36;100934.75;;;19.20;37.58
13011;BME280;6786;57.632;11.962;2024-02-15T01:05:05;100943.53;;;19.22;37.52
13011;BME280;6786;57.632;11.962;2024-02-15T01:07:33;100940.09;;;19.20;37.60
13011;BME280;6786;57.632;11.962;2024-02-15T01:10:01;100943.53;;;19.22;37.50
13011;BME280;6786;57.632;11.962;2024-02-15T01:12:31;100949.97;;;19.19;37.52
13011;BME280;6786;57.632;11.962;2024-02-15T01:15:00;100948.28;;;19.18;37.56
13011;BME280;6786;57.632;11.962;2024-02-15T01:17:28;100953.50;;;19.20;37.73
13011;BME280;6786;57.632;11.962;2024-02-15T01:19:56;100950.81;;;19.20;37.53
13011;BME280;6786;57.632;11.962;2024-02-15T01:22:24;100945.47;;;19.20;37.47
13011;BME280;6786;57.632;11.962;2024-02-15T01:24:54;100947.16;;;19.21;37.59
13011;BME280;6786;57.632;11.962;2024-02-15T01:27:23;100939.25;;;19.19;37.56
13011;BME280;6786;57.632;11.962;2024-02-15T01:29:55;100945.47;;;19.20;37.56
13011;BME280;6786;57.632;11.962;2024-02-15T01:32:24;100943.78;;;19.19;37.62
13011;BME280;6786;57.632;11.962;2024-02-15T01:34:52;100943.78;;;19.19;37.57
13011;BME280;6786;57.632;11.962;2024-02-15T01:37:21;100931.34;;;19.18;37.56
13011;BME280;6786;57.632;11.962;2024-02-15T01:39:50;100934.75;;;19.20;37.52
13011;BME280;6786;57.632;11.962;2024-02-15T01:42:19;100936.44;;;19.21;37.60
13011;BME280;6786;57.632;11.962;2024-02-15T01:44:47;100930.25;;;19.20;37.52
13011;BME280;6786;57.632;11.962;2024-02-15T01:47:18;100932.06;;;19.20;37.53
13011;BME280;6786;57.632;11.962;2024-02-15T01:49:47;100941.78;;;19.21;37.59
13011;BME280;6786;57.632;11.962;2024-02-15T01:52:16;100938.41;;;19.19;37.65
13011;BME280;6786;57.632;11.962;2024-02-15T01:54:46;100936.69;;;19.18;37.63
13011;BME280;6786;57.632;11.962;2024-02-15T01:57:15;100936.69;;;19.18;37.61
13011;BME280;6786;57.632;11.962;2024-02-15T01:59:46;100936.69;;;19.18;37.65
13011;BME280;6786;57.632;11.962;2024-02-15T02:02:14;100889.47;;;18.96;37.53
13011;BME280;6786;57.632;11.962;2024-02-15T02:04:45;100927.69;;;19.19;37.60
13011;BME280;6786;57.632;11.962;2024-02-15T02:07:14;100920.63;;;19.18;37.71
13011;BME280;6786;57.632;11.962;2024-02-15T02:09:42;100921.47;;;19.18;37.63
13011;BME280;6786;57.632;11.962;2024-02-15T02:12:12;100922.34;;;19.19;37.38
13011;BME280;6786;57.632;11.962;2024-02-15T02:14:41;100915.25;;;19.18;37.64
13011;BME280;6786;57.632;11.962;2024-02-15T02:17:13;100914.31;;;19.19;37.65
13011;BME280;6786;57.632;11.962;2024-02-15T02:19:42;100907.94;;;19.20;37.68
13011;BME280;6786;57.632;11.962;2024-02-15T02:22:12;100907.94;;;19.20;37.65
13011;BME280;6786;57.632;11.962;2024-02-15T02:24:59;100916.13;;;19.18;37.62
13011;BME280;6786;57.632;11.962;2024-02-15T02:27:28;100906.28;;;19.19;37.70
13011;BME280;6786;57.632;11.962;2024-02-15T02:29:57;100885.34;;;19.13;37.44
13011;BME280;6786;57.632;11.962;2024-02-15T02:32:26;100895.69;;;19.17;37.46
13011;BME280;6786;57.632;11.962;2024-02-15T02:34:56;100898.34;;;19.17;37.60
13011;BME280;6786;57.632;11.962;2024-02-15T02:37:24;100888.72;;;19.15;37.61
13011;BME280;6786;57.632;11.962;2024-02-15T02:39:53;100895.56;;;19.19;37.65
13011;BME280;6786;57.632;11.962;2024-02-15T02:42:22;100888.47;;;19.18;37.45
13011;BME280;6786;57.632;11.962;2024-02-15T02:44:51;100895.56;;;19.19;37.66
13011;BME280;6786;57.632;11.962;2024-02-15T02:47:19;100887.66;;;19.17;37.52
13011;BME280;6786;57.632;11.962;2024-02-15T02:49:48;100886.78;;;19.17;37.70
13011;BME280;6786;57.632;11.962;2024-02-15T02:52:16;100888.47;;;19.18;37.55
13011;BME280;6786;57.632;11.962;2024-02-15T02:54:44;100894.81;;;19.17;37.55
13011;BME280;6786;57.632;11.962;2024-02-15T02:57:13;100899.19;;;19.18;37.59
13011;BME280;6786;57.632;11.962;2024-02-15T02:59:42;100888.47;;;19.18;37.67
13011;BME280;6786;57.632;11.962;2024-02-15T03:02:11;100888.47;;;19.18;37.55
13011;BME280;6786;57.632;11.962;2024-02-15T03:04:40;100890.19;;;19.19;37.60
13011;BME280;6786;57.632;11.962;2024-02-15T03:07:08;100891.28;;;19.16;37.57
13011;BME280;6786;57.632;11.962;2024-02-15T03:09:36;100890.44;;;19.16;37.71
13011;BME280;6786;57.632;11.962;2024-02-15T03:12:05;100894.09;;;19.15;37.57
13011;BME280;6786;57.632;11.962;2024-02-15T03:14:33;100907.47;;;19.15;37.74
13011;BME280;6786;57.632;11.962;2024-02-15T03:17:03;100896.78;;;19.15;37.66
13011;BME280;6786;57.632;11.962;2024-02-15T03:19:32;100895.81;;;19.16;37.67
13011;BME280;6786;57.632;11.962;2024-02-15T03:22:01;100897.88;;;19.12;37.57
13011;BME280;6786;57.632;11.962;2024-02-15T03:24:29;100893.25;;;19.14;37.61
13011;BME280;6786;57.632;11.962;2024-02-15T03:26:57;100899.44;;;19.15;37.69
13011;BME280;6786;57.632;11.962;2024-02-15T03:29:26;100892.41;;;19.14;37.63
13011;BME280;6786;57.632;11.962;2024-02-15T03:31:57;100899.44;;;19.15;37.69
13011;BME280;6786;57.632;11.962;2024-02-15T03:34:26;100901.16;;;19.16;37.60
13011;BME280;6786;57.632;11.962;2024-02-15T03:36:55;100907.47;;;19.15;37.60
13011;BME280;6786;57.632;11.962;2024-02-15T03:39:23;100906.53;;;19.16;37.61
13011;BME280;6786;57.632;11.962;2024-02-15T03:41:51;100911.88;;;19.16;37.59
13011;BME280;6786;57.632;11.962;2024-02-15T03:44:20;100906.53;;;19.16;37.57
13011;BME280;6786;57.632;11.962;2024-02-15T03:46:48;100902.00;;;19.16;37.51
13011;BME280;6786;57.632;11.962;2024-02-15T03:49:18;100892.13;;;19.17;37.63
13011;BME280;6786;57.632;11.962;2024-02-15T03:51:49;100897.50;;;19.17;37.59
13011;BME280;6786;57.632;11.962;2024-02-15T03:54:18;100908.22;;;19.17;37.62
13011;BME280;6786;57.632;11.962;2024-02-15T03:56:47;100909.91;;;19.18;37.60
13011;BME280;6786;57.632;11.962;2024-02-15T03:59:19;100896.50;;;19.18;37.61
13011;BME280;6786;57.632;11.962;2024-02-15T04:01:53;100897.50;;;19.17;37.60
13011;BME280;6786;57.632;11.962;2024-02-15T04:04:23;100903.84;;;19.16;37.64
13011;BME280;6786;57.632;11.962;2024-02-15T04:06:54;100906.53;;;19.16;37.56
13011;BME280;6786;57.632;11.962;2024-02-15T04:09:23;100908.22;;;19.17;37.57
13011;BME280;6786;57.632;11.962;2024-02-15T04:11:52;100902.00;;;19.16;37.61
13011;BME280;6786;57.632;11.962;2024-02-15T04:14:20;100911.88;;;19.16;37.56
13011;BME280;6786;57.632;11.962;2024-02-15T04:16:50;100909.22;;;19.16;37.60
13011;BME280;6786;57.632;11.962;2024-02-15T04:19:18;100906.78;;;19.13;37.57
13011;BME280;6786;57.632;11.962;2024-02-15T04:21:47;100911.88;;;19.16;37.65
13011;BME280;6786;57.632;11.962;2024-02-15T04:24:17;100913.56;;;19.17;37.48
13011;BME280;6786;57.632;11.962;2024-02-15T04:26:45;100891.53;;;19.13;37.68
13011;BME280;6786;57.632;11.962;2024-02-15T04:29:15;100894.94;;;19.15;37.67
13011;BME280;6786;57.632;11.962;2024-02-15T04:31:44;100884.50;;;19.12;37.61
13011;BME280;6786;57.632;11.962;2024-02-15T04:34:16;100894.09;;;19.15;37.64
13011;BME280;6786;57.632;11.962;2024-02-15T04:36:46;100896.22;;;19.11;37.64
13011;BME280;6786;57.632;11.962;2024-02-15T04:39:18;100903.97;;;19.14;37.63
13011;BME280;6786;57.632;11.962;2024-02-15T04:41:51;100898.63;;;19.14;37.75
13011;BME280;6786;57.632;11.962;2024-02-15T04:44:19;100899.44;;;19.15;37.67
13011;BME280;6786;57.632;11.962;2024-02-15T04:46:48;100907.47;;;19.15;37.69
13011;BME280;6786;57.632;11.962;2024-02-15T04:49:17;100909.34;;;19.14;37.63
13011;BME280;6786;57.632;11.962;2024-02-15T04:51:46;100903.13;;;19.14;37.64
13011;BME280;6786;57.632;11.962;2024-02-15T04:54:14;100882.47;;;19.05;37.69
13011;BME280;6786;57.632;11.962;2024-02-15T04:56:44;100900.31;;;19.15;37.60
13011;BME280;6786;57.632;11.962;2024-02-15T04:59:13;100889.72;;;19.14;37.65
13011;BME280;6786;57.632;11.962;2024-02-15T05:01:43;100890.44;;;19.16;37.62
13011;BME280;6786;57.632;11.962;2024-02-15T05:04:12;100904.53;;;19.18;37.61
13011;BME280;6786;57.632;11.962;2024-02-15T05:06:41;100902.84;;;19.17;37.63
13011;BME280;6786;57.632;11.962;2024-02-15T05:09:09;100893.19;;;19.05;37.56
13011;BME280;6786;57.632;11.962;2024-02-15T05:11:38;100913.56;;;19.17;37.67
13011;BME280;6786;57.632;11.962;2024-02-15T05:14:09;100908.22;;;19.17;37.59
13011;BME280;6786;57.632;11.962;2024-02-15T05:16:38;100892.66;;;19.11;37.62
13011;BME280;6786;57.632;11.962;2024-02-15T05:19:09;100903.59;;;19.19;37.67
13011;BME280;6786;57.632;11.962;2024-02-15T05:21:39;100899.91;;;19.20;37.52
13011;BME280;6786;57.632;11.962;2024-02-15T05:24:07;100896.25;;;19.21;37.65
13011;BME280;6786;57.632;11.962;2024-02-15T05:26:36;100896.38;;;19.19;37.69
13011;BME280;6786;57.632;11.962;2024-02-15T05:29:04;100891.88;;;19.20;37.62
13011;BME280;6786;57.632;11.962;2024-02-15T05:31:34;100895.56;;;19.19;37.60
13011;BME280;6786;57.632;11.962;2024-02-15T05:34:05;100890.19;;;19.19;37.73
13011;BME280;6786;57.632;11.962;2024-02-15T05:36:35;100893.00;;;19.17;37.67
13011;BME280;6786;57.632;11.962;2024-02-15T05:39:03;100896.50;;;19.18;37.64
13011;BME280;6786;57.632;11.962;2024-02-15T05:41:32;100893.00;;;19.17;37.65
13011;BME280;6786;57.632;11.962;2024-02-15T05:44:01;100896.63;;;19.16;37.49
13011;BME280;6786;57.632;11.962;2024-02-15T05:46:31;100894.09;;;19.15;37.64
13011;BME280;6786;57.632;11.962;2024-02-15T05:49:05;100902.13;;;19.15;37.70
13011;BME280;6786;57.632;11.962;2024-02-15T05:51:35;100907.47;;;19.15;37.75
13011;BME280;6786;57.632;11.962;2024-02-15T05:54:03;100909.22;;;19.16;37.71
13011;BME280;6786;57.632;11.962;2024-02-15T05:56:32;100897.50;;;19.17;37.73
13011;BME280;6786;57.632;11.962;2024-02-15T05:59:00;100904.81;;;19.15;37.70
13011;BME280;6786;57.632;11.962;2024-02-15T06:01:36;100914.44;;;19.17;37.77
13011;BME280;6786;57.632;11.962;2024-02-15T06:04:07;100911.88;;;19.16;37.72
13011;BME280;6786;57.632;11.962;2024-02-15T06:06:36;100906.53;;;19.16;37.62
13011;BME280;6786;57.632;11.962;2024-02-15T06:09:05;100915.53;;;19.15;37.71
13011;BME280;6786;57.632;11.962;2024-02-15T06:11:33;100922.59;;;19.16;37.70
13011;BME280;6786;57.632;11.962;2024-02-15T06:14:02;100920.88;;;19.15;37.61
13011;BME280;6786;57.632;11.962;2024-02-15T06:16:31;100915.53;;;19.15;37.65
13011;BME280;6786;57.632;11.962;2024-02-15T06:18:59;100922.59;;;19.16;37.71
13011;BME280;6786;57.632;11.962;2024-02-15T06:21:29;100914.69;;;19.14;37.70
13011;BME280;6786;57.632;11.962;2024-02-15T06:23:57;100911.88;;;19.16;37.65
13011;BME280;6786;57.632;11.962;2024-02-15T06:26:26;100908.22;;;19.17;37.66
13011;BME280;6786;57.632;11.962;2024-02-15T06:28:55;100908.22;;;19.17;37.70
13011;BME280;6786;57.632;11.962;2024-02-15T06:31:40;100908.22;;;19.17;37.75
13011;BME280;6786;57.632;11.962;2024-02-15T06:34:26;100913.56;;;19.17;37.61
13011;BME280;6786;57.632;11.962;2024-02-15T06:37:36;100907.34;;;19.16;37.85
13011;BME280;6786;57.632;11.962;2024-02-15T06:40:27;100911.88;;;19.16;37.56
13011;BME280;6786;57.632;11.962;2024-02-15T06:42:55;100918.34;;;19.13;37.74
13011;BME280;6786;57.632;11.962;2024-02-15T06:45:23;100921.75;;;19.15;37.76
13011;BME280;6786;57.632;11.962;2024-02-15T06:47:52;100921.88;;;19.14;37.66
13011;BME280;6786;57.632;11.962;2024-02-15T06:50:21;100905.81;;;19.14;37.71
13011;BME280;6786;57.632;11.962;2024-02-15T06:52:50;100908.47;;;19.14;37.61
13011;BME280;6786;57.632;11.962;2024-02-15T06:55:20;100910.16;;;19.15;37.69
13011;BME280;6786;57.632;11.962;2024-02-15T06:57:48;100910.16;;;19.15;37.67
13011;BME280;6786;57.632;11.962;2024-02-15T07:00:17;100922.59;;;19.16;37.62
13011;BME280;6786;57.632;11.962;2024-02-15T07:02:45;100925.41;;;19.14;37.67
13011;BME280;6786;57.632;11.962;2024-02-15T07:05:15;100927.38;;;19.12;37.54
13011;BME280;6786;57.632;11.962;2024-02-15T07:07:44;100936.97;;;19.15;37.66
13011;BME280;6786;57.632;11.962;2024-02-15T07:10:13;100941.34;;;19.16;37.64
13011;BME280;6786;57.632;11.962;2024-02-15T07:12:43;100944.03;;;19.16;37.66
13011;BME280;6786;57.632;11.962;2024-02-15T07:15:11;100941.50;;;19.14;37.63
13011;BME280;6786;57.632;11.962;2024-02-15T07:17:40;100935.53;;;19.11;37.67
13011;BME280;6786;57.632;11.962;2024-02-15T07:20:11;100941.75;;;19.11;37.76
13011;BME280;6786;57.632;11.962;2024-02-15T07:22:43;100941.63;;;19.13;37.66
13011;BME280;6786;57.632;11.962;2024-02-15T07:25:14;100938.94;;;19.13;37.71
13011;BME280;6786;57.632;11.962;2024-02-15T07:27:42;100936.25;;;19.13;37.64
13011;BME280;6786;57.632;11.962;2024-02-15T07:30:11;100928.91;;;19.15;37.75
13011;BME280;6786;57.632;11.962;2024-02-15T07:32:40;100929.91;;;19.14;37.79
13011;BME280;6786;57.632;11.962;2024-02-15T07:35:08;100936.13;;;19.14;37.92
13011;BME280;6786;57.632;11.962;2024-02-15T07:37:39;100934.28;;;19.15;37.74
13011;BME280;6786;57.632;11.962;2024-02-15T07:40:08;100930.63;;;19.16;37.72
13011;BME280;6786;57.632;11.962;2024-02-15T07:42:38;100924.28;;;19.17;37.77
13011;BME280;6786;57.632;11.962;2024-02-15T07:45:06;100930.63;;;19.16;37.67
13011;BME280;6786;57.632;11.962;2024-02-15T07:47:35;100926.25;;;19.15;37.70
13011;BME280;6786;57.632;11.962;2024-02-15T07:50:03;100929.06;;;19.13;37.72
13011;BME280;6786;57.632;11.962;2024-02-15T07:52:32;100929.91;;;19.14;37.67
13011;BME280;6786;57.632;11.962;2024-02-15T07:55:01;100923.13;;;19.10;37.76
13011;BME280;6786;57.632;11.962;2024-02-15T07:57:35;100928.22;;;19.13;37.73
13011;BME280;6786;57.632;11.962;2024-02-15T08:00:06;100928.22;;;19.13;37.76
13011;BME280;6786;57.632;11.962;2024-02-15T08:02:38;100924.81;;;19.11;37.65
13011;BME280;6786;57.632;11.962;2024-02-15T08:05:09;100932.59;;;19.14;37.74
13011;BME280;6786;57.632;11.962;2024-02-15T08:07:41;100933.59;;;19.13;37.70
13011;BME280;6786;57.632;11.962;2024-02-15T08:10:11;100932.59;;;19.14;37.83
13011;BME280;6786;57.632;11.962;2024-02-15T08:12:41;100933.59;;;19.13;37.64
13011;BME280;6786;57.632;11.962;2024-02-15T08:15:11;100927.38;;;19.12;37.69
13011;BME280;6786;57.632;11.962;2024-02-15T08:17:40;100926.53;;;19.12;37.73
13011;BME280;6786;57.632;11.962;2024-02-15T08:20:10;100911.28;;;19.12;37.68
13011;BME280;6786;57.632;11.962;2024-02-15T08:22:39;100914.81;;;19.13;37.73
13011;BME280;6786;57.632;11.962;2024-02-15T08:25:10;100917.50;;;19.13;37.71
13011;BME280;6786;57.632;11.962;2024-02-15T08:27:39;100916.50;;;19.14;37.61
13011;BME280;6786;57.632;11.962;2024-02-15T08:30:12;100913.84;;;19.14;37.73
13011;BME280;6786;57.632;11.962;2024-02-15T08:32:41;100913.84;;;19.14;37.73
13011;BME280;6786;57.632;11.962;2024-02-15T08:35:10;100919.19;;;19.14;37.72
13011;BME280;6786;57.632;11.962;2024-02-15T08:37:39;100915.81;;;19.12;37.77
13011;BME280;6786;57.632;11.962;2024-02-15T08:40:09;100917.50;;;19.13;37.79
13011;BME280;6786;57.632;11.962;2024-02-15T08:42:39;100912.97;;;19.13;37.64
13011;BME280;6786;57.632;11.962;2024-02-15T08:45:09;100913.84;;;19.14;37.69
13011;BME280;6786;57.632;11.962;2024-02-15T08:47:39;100896.06;;;19.13;37.63
13011;BME280;6786;57.632;11.962;2024-02-15T08:50:09;100896.06;;;19.13;37.71
13011;BME280;6786;57.632;11.962;2024-02-15T08:52:38;100885.34;;;19.13;37.65
13011;BME280;6786;57.632;11.962;2024-02-15T08:55:08;100887.19;;;19.12;37.61
13011;BME280;6786;57.632;11.962;2024-02-15T08:57:37;100885.34;;;19.13;37.72
13011;BME280;6786;57.632;11.962;2024-02-15T09:00:08;100865.75;;;18.92;37.63
13011;BME280;6786;57.632;11.962;2024-02-15T09:02:42;100905.94;;;19.12;37.73
13011;BME280;6786;57.632;11.962;2024-02-15T09:05:11;100900.00;;;19.09;37.72
13011;BME280;6786;57.632;11.962;2024-02-15T09:07:42;100903.38;;;19.11;37.59
13011;BME280;6786;57.632;11.962;2024-02-15T09:10:10;100903.13;;;19.14;37.65
13011;BME280;6786;57.632;11.962;2024-02-15T09:12:39;100899.44;;;19.15;37.83
13011;BME280;6786;57.632;11.962;2024-02-15T09:15:09;100903.13;;;19.14;37.57
13011;BME280;6786;57.632;11.962;2024-02-15T09:17:38;100874.97;;;18.99;37.47
13011;BME280;6786;57.632;11.962;2024-02-15T09:20:11;100897.50;;;19.17;37.63
13011;BME280;6786;57.632;11.962;2024-02-15T09:22:42;100897.75;;;19.14;37.67
13011;BME280;6786;57.632;11.962;2024-02-15T09:25:13;100888.72;;;19.15;37.71
13011;BME280;6786;57.632;11.962;2024-02-15T09:27:41;100903.97;;;19.14;37.70
13011;BME280;6786;57.632;11.962;2024-02-15T09:30:11;100897.75;;;19.14;37.65
13011;BME280;6786;57.632;11.962;2024-02-15T09:32:39;100905.09;;;19.12;37.65
13011;BME280;6786;57.632;11.962;2024-02-15T09:35:10;100905.81;;;19.14;37.66
13011;BME280;6786;57.632;11.962;2024-02-15T09:37:43;100908.47;;;19.14;37.77
13011;BME280;6786;57.632;11.962;2024-02-15T09:40:13;100908.47;;;19.14;37.64
13011;BME280;6786;57.632;11.962;2024-02-15T09:42:42;100904.81;;;19.15;37.68
13011;BME280;6786;57.632;11.962;2024-02-15T09:45:12;100904.81;;;19.15;37.64
13011;BME280;6786;57.632;11.962;2024-02-15T09:47:42;100908.22;;;19.17;37.58
13011;BME280;6786;57.632;11.962;2024-02-15T09:50:13;100918.94;;;19.17;37.59
13011;BME280;6786;57.632;11.962;2024-02-15T09:52:44;100920.63;;;19.18;37.64
13011;BME280;6786;57.632;11.962;2024-02-15T09:55:13;100915.25;;;19.18;37.58
13011;BME280;6786;57.632;11.962;2024-02-15T09:57:43;100915.25;;;19.18;37.63
13011;BME280;6786;57.632;11.962;2024-02-15T10:00:12;100920.63;;;19.18;37.61
13011;BME280;6786;57.632;11.962;2024-02-15T10:02:43;100921.63;;;19.17;37.64
13011;BME280;6786;57.632;11.962;2024-02-15T10:05:13;100914.44;;;19.17;37.51
13011;BME280;6786;57.632;11.962;2024-02-15T10:07:43;100911.88;;;19.16;37.67
13011;BME280;6786;57.632;11.962;2024-02-15T10:10:16;100911.88;;;19.16;37.67
13011;BME280;6786;57.632;11.962;2024-02-15T10:12:46;100905.66;;;19.15;37.60
13011;BME280;6786;57.632;11.962;2024-02-15T10:15:29;100912.97;;;19.13;37.78
13011;BME280;6786;57.632;11.962;2024-02-15T10:18:01;100911.88;;;19.16;37.65
13011;BME280;6786;57.632;11.962;2024-02-15T10:20:32;100914.56;;;19.16;37.69
13011;BME280;6786;57.632;11.962;2024-02-15T10:23:11;100901.16;;;19.16;37.71
13011;BME280;6786;57.632;11.962;2024-02-15T10:25:40;100902.84;;;19.17;37.40
13011;BME280;6786;57.632;11.962;2024-02-15T10:28:09;100893.13;;;19.16;37.49
13011;BME280;6786;57.632;11.962;2024-02-15T10:30:40;100898.50;;;19.16;37.63
13011;BME280;6786;57.632;11.962;2024-02-15T10:33:11;100901.16;;;19.16;37.54
13011;BME280;6786;57.632;11.962;2024-02-15T10:35:48;100858.47;;;18.94;37.56
13011;BME280;6786;57.632;11.962;2024-02-15T10:38:16;100893.13;;;19.16;37.62
13011;BME280;6786;57.632;11.962;2024-02-15T10:40:46;100883.38;;;19.15;37.67
13011;BME280;6786;57.632;11.962;2024-02-15T10:43:15;100871.75;;;19.05;37.47
13011;BME280;6786;57.632;11.962;2024-02-15T10:45:45;100884.22;;;19.15;37.60
13011;BME280;6786;57.632;11.962;2024-02-15T10:48:16;100880.69;;;19.15;37.63
13011;BME280;6786;57.632;11.962;2024-02-15T10:50:45;100872.34;;;19.08;37.62
13011;BME280;6786;57.632;11.962;2024-02-15T10:53:21;100878.00;;;19.15;37.69
13011;BME280;6786;57.632;11.962;2024-02-15T10:55:53;100878.00;;;19.15;37.72
13011;BME280;6786;57.632;11.962;2024-02-15T10:58:26;100878.00;;;19.15;37.58
13011;BME280;6786;57.632;11.962;2024-02-15T11:01:02;100864.44;;;19.07;37.75
13011;BME280;6786;57.632;11.962;2024-02-15T11:03:36;100867.31;;;19.15;37.64
13011;BME280;6786;57.632;11.962;2024-02-15T11:06:10;100867.31;;;19.15;37.62
13011;BME280;6786;57.632;11.962;2024-02-15T11:08:41;100865.63;;;19.14;37.61
13011;BME280;6786;57.632;11.962;2024-02-15T11:11:11;100863.94;;;19.13;37.60
13011;BME280;6786;57.632;11.962;2024-02-15T11:13:41;100867.44;;;19.13;37.65
13011;BME280;6786;57.632;11.962;2024-02-15T11:16:09;100865.63;;;19.14;37.78
13011;BME280;6786;57.632;11.962;2024-02-15T11:18:44;100865.63;;;19.14;37.77
13011;BME280;6786;57.632;11.962;2024-02-15T11:21:16;100856.88;;;19.12;37.69
13011;BME280;6786;57.632;11.962;2024-02-15T11:23:46;100861.13;;;19.14;37.73
13011;BME280;6786;57.632;11.962;2024-02-15T11:26:44;100865.63;;;19.14;37.86
13011;BME280;6786;57.632;11.962;2024-02-15T11:29:50;100865.63;;;19.14;37.74
13011;BME280;6786;57.632;11.962;2024-02-15T11:32:39;100874.63;;;19.13;37.80
13011;BME280;6786;57.632;11.962;2024-02-15T11:35:12;100875.47;;;19.13;37.70
13011;BME280;6786;57.632;11.962;2024-02-15T11:37:52;100866.59;;;19.13;37.78
13011;BME280;6786;57.632;11.962;2024-02-15T11:40:22;100836.50;;;19.00;37.64
13011;BME280;6786;57.632;11.962;2024-02-15T11:42:51;100863.94;;;19.13;37.65
13011;BME280;6786;57.632;11.962;2024-02-15T11:45:21;100867.59;;;19.12;37.63
13011;BME280;6786;57.632;11.962;2024-02-15T11:47:50;100862.25;;;19.12;37.62
13011;BME280;6786;57.632;11.962;2024-02-15T11:50:20;100863.94;;;19.13;37.72
13011;BME280;6786;57.632;11.962;2024-02-15T11:52:50;100853.22;;;19.13;37.71
13011;BME280;6786;57.632;11.962;2024-02-15T11:55:19;100858.56;;;19.13;37.65
13011;BME280;6786;57.632;11.962;2024-02-15T11:57:59;100847.84;;;19.13;37.85
13011;BME280;6786;57.632;11.962;2024-02-15T12:00:39;100848.69;;;19.13;37.73
13011;BME280;6786;57.632;11.962;2024-02-15T12:03:25;100847.00;;;19.12;37.61
13011;BME280;6786;57.632;11.962;2024-02-15T12:06:30;100843.31;;;19.13;37.67
13011;BME280;6786;57.632;11.962;2024-02-15T12:09:17;100835.44;;;19.12;37.56
13011;BME280;6786;57.632;11.962;2024-02-15T12:12:05;100848.69;;;19.13;37.64
13011;BME280;6786;57.632;11.962;2024-02-15T12:14:59;100799.78;;;18.91;37.75
13011;BME280;6786;57.632;11.962;2024-02-15T12:17:45;100836.28;;;19.12;37.65
13011;BME280;6786;57.632;11.962;2024-02-15T12:20:31;100823.00;;;19.11;37.78
13011;BME280;6786;57.632;11.962;2024-02-15T12:22:59;100823.00;;;19.11;37.69
13011;BME280;6786;57.632;11.962;2024-02-15T12:25:28;100818.50;;;19.11;37.74
13011;BME280;6786;57.632;11.962;2024-02-15T12:28:00;100808.66;;;19.12;37.75
13011;BME280;6786;57.632;11.962;2024-02-15T12:30:34;100769.34;;;18.92;37.67
13011;BME280;6786;57.632;11.962;2024-02-15T12:33:12;100808.66;;;19.12;37.83
13011;BME280;6786;57.632;11.962;2024-02-15T12:35:47;100810.34;;;19.13;37.69
13011;BME280;6786;57.632;11.962;2024-02-15T12:38:17;100807.19;;;19.08;37.70
13011;BME280;6786;57.632;11.962;2024-02-15T12:40:45;100806.94;;;19.11;37.69
13011;BME280;6786;57.632;11.962;2024-02-15T12:43:15;100812.03;;;19.14;37.78
13011;BME280;6786;57.632;11.962;2024-02-15T12:45:44;100816.53;;;19.13;37.74
13011;BME280;6786;57.632;11.962;2024-02-15T12:48:13;100813.03;;;19.13;37.81
13011;BME280;6786;57.632;11.962;2024-02-15T12:50:42;100810.34;;;19.13;37.73
13011;BME280;6786;57.632;11.962;2024-02-15T12:53:10;100814.00;;;19.12;37.77
13011;BME280;6786;57.632;11.962;2024-02-15T12:55:39;100804.13;;;19.12;37.89
13011;BME280;6786;57.632;11.962;2024-02-15T12:58:13;100804.97;;;19.13;37.71
13011;BME280;6786;57.632;11.962;2024-02-15T13:00:43;100795.94;;;19.14;37.67
13011;BME280;6786;57.632;11.962;2024-02-15T13:03:13;100806.66;;;19.14;37.76
13011;BME280;6786;57.632;11.962;2024-02-15T13:05:42;100801.31;;;19.14;37.76
13011;BME280;6786;57.632;11.962;2024-02-15T13:08:11;100803.00;;;19.15;37.72